x

Sheboygan, Wi (sgnw3) Weather Station

7:00am - Sat 18th Nov 2017 All times are CST. -6 hours from GMT.

  • Wind
    20mph, 23mph gusts
  • Air Temp 38°f
  • Sea Pressure 1001.1mb
  • Sheboygan, Wi
  • Sheboygan, Wi

More Historic Weather Station data

Upgrade to MSW Pro to gain access to the past 30 days of data for over 8000 Wavebouys and Weather Stations around the globe.

Join

Comparision Forecast

View Surf forecast
   
Sat 11/18 7:00am 20 23 mph 1001.1mb 38f
6:00am 18 21 mph 1000.8mb 38f
5:00am 16 20 mph 1001.3mb 38f
4:00am 14 15 mph 1001.7mb 38f
3:00am 14 15 mph 1001.1mb 38f
2:00am 9 10 mph 1001mb 39f
1:00am 7 7 mph 1000.7mb 40f
12:00am 9 13 mph 1002mb 40f
Fri 11/17 11:00pm 5 6 mph 1001.9mb 40f
10:00pm 5 6 mph 1002.6mb 41f
9:00pm 9 11 mph 1002.9mb 41f
8:00pm 14 17 mph 1003.3mb 41f
7:00pm 20 23 mph 1003.5mb 41f
6:00pm 29 31 mph 1004.1mb 41f
5:00pm 32 36 mph 1004.1mb 43f
4:00pm 30 32 mph 1005.9mb 42f
3:00pm 31 34 mph 1007.3mb 41f
2:00pm 31 34 mph 1008.9mb 41f
1:00pm 34 38 mph 1010.3mb 41f
12:00pm 30 33 mph 1011.9mb 40f
11:00am 32 37 mph 1013mb 40f
10:00am 31 34 mph 1015.1mb 40f
7:00am 16
mph
- 39f
6:00am 18
mph
1019.3mb 41f
5:00am 13 15 mph 1019.4mb 39f
4:00am 9 10 mph 1021.4mb 39f
3:00am 18 21 mph 1020.7mb 39f
2:00am 5 6 mph 1022.5mb 37f
1:00am 7 8 mph 1023mb 37f
12:00am 11 13 mph 1023.4mb 37f
Thu 11/16 11:00pm 10 11 mph 1023.3mb 37f
10:00pm 7 8 mph 1023.9mb 36f
9:00pm 6 7 mph 1024.5mb 35f
8:00pm 7 8 mph 1025.2mb 35f
7:00pm 8 9 mph 1025.3mb 35f
6:00pm 5 6 mph 1025.2mb 34f
5:00pm 8 9 mph 1024.9mb 34f
4:00pm 9 10 mph 1024.8mb 34f
3:00pm 9 10 mph 1024.2mb 35f
2:00pm 13 15 mph 1023.8mb 35f
1:00pm 16 18 mph 1023.8mb 35f
12:00pm 16 18 mph 1023.7mb 34f
11:00am 15 17 mph 1023.7mb 34f
10:00am 16 20 mph 1023.4mb 33f
9:00am 14 18 mph 1022.6mb 33f
8:00am 16 20 mph 1021.5mb 33f
7:00am 17 21 mph 1020.2mb 33f
6:00am 23 29 mph 1019.1mb 34f
5:00am 18 23 mph 1017.9mb 35f
4:00am 17 22 mph 1016.6mb 35f
3:00am 22 25 mph 1015.3mb 35f
2:00am 22 28 mph 1014.7mb 35f
1:00am 24 30 mph 1013.7mb 35f
12:00am 23 30 mph 1013mb 35f
Wed 11/15 11:00pm 20 23 mph 1012.5mb 36f
10:00pm 21 28 mph 1011.5mb 35f
9:00pm 21 23 mph 1011.2mb 35f
8:00pm 26 33 mph 1009.9mb 36f
7:00pm 25 30 mph 1009.3mb 39f
6:00pm 24 29 mph 1008mb 42f
5:00pm 22 29 mph 1006.8mb 44f
4:00pm 21 25 mph 1005.8mb 45f
3:00pm 22 26 mph 1005.2mb 45f
2:00pm 22 26 mph 1004.4mb 47f
1:00pm 15 21 mph 1004.3mb 46f
12:00pm 13 15 mph 1004.7mb 46f
11:00am 10 11 mph 1005.5mb 45f
10:00am 10 13 mph 1006.2mb 44f
9:00am 11 14 mph 1007.3mb 43f
8:00am 17 18 mph 1008mb 43f
7:00am 14 15 mph 1008.8mb 43f
6:00am 20 22 mph 1008.7mb 43f
5:00am 16 17 mph 1010mb 44f
4:00am 18 20 mph 1010.7mb 43f
3:00am 18 20 mph 1012.1mb 44f
2:00am 18 20 mph 1013.1mb 44f
1:00am 21 23 mph 1014.4mb 45f
12:00am 24 28 mph 1014.8mb 46f
Tue 11/14 11:00pm 26 29 mph 1015mb 45f
10:00pm 23 26 mph 1015.6mb 44f
9:00pm 25 29 mph 1016.2mb 45f
8:00pm 21 23 mph 1016.7mb 44f
7:00pm 17 18 mph 1017.5mb 43f
6:00pm 20 22 mph 1018mb 44f
5:00pm 21 23 mph 1018.4mb 43f
4:00pm 21 23 mph 1019.1mb 43f
3:00pm 18 20 mph 1019.7mb 42f